Time;durP1;ratioP1;P1;durP2;ratioP2;P2;SDS_P1;SDS_P2;PMS_P1;PMS_P2;Temp;Humidity;BMP_temperature;BMP_pressure;BME280_temperature;BME280_humidity;BME280_pressure;Samples;Min_cycle;Max_cycle;Signal;HPM_P1;HPM_P2
2021/09/15 00:01:50;;;;;;;10.20;6.87;;;;;;;18.92;45.42;95348.31;5049112;28;20220;-68
2021/09/15 00:04:17;;;;;;;9.13;6.57;;;;;;;18.55;46.94;95348.53;5048688;28;20204;-68
2021/09/15 00:06:43;;;;;;;11.73;6.57;;;;;;;18.49;46.43;95344.38;5048576;28;20690;-67
2021/09/15 00:09:10;;;;;;;10.77;6.67;;;;;;;18.31;47.12;95345.22;5049817;28;20446;-68
2021/09/15 00:11:37;;;;;;;11.40;7.10;;;;;;;18.30;47.20;95334.91;5048969;28;20446;-68
2021/09/15 00:14:04;;;;;;;8.97;6.50;;;;;;;18.45;47.28;95351.34;5049680;28;20431;-67
2021/09/15 00:16:32;;;;;;;11.73;6.17;;;;;;;18.72;46.37;95339.97;5037202;28;20193;-69
2021/09/15 00:18:58;;;;;;;11.97;6.70;;;;;;;18.79;45.86;95354.44;5042881;28;20435;-68
2021/09/15 00:21:26;;;;;;;12.90;6.90;;;;;;;18.88;46.14;95347.34;5039709;28;20530;-68
2021/09/15 00:23:53;;;;;;;12.90;6.57;;;;;;;18.82;46.31;95348.53;5035209;28;20545;-67
2021/09/15 00:26:20;;;;;;;9.53;6.50;;;;;;;18.82;46.18;95345.88;5040377;28;20460;-68
2021/09/15 00:28:46;;;;;;;9.40;6.10;;;;;;;18.83;46.12;95344.78;5030368;28;20467;-68
2021/09/15 00:31:13;;;;;;;9.23;6.10;;;;;;;18.81;45.44;95346.94;5048954;28;20184;-68
2021/09/15 00:33:41;;;;;;;13.10;6.27;;;;;;;18.69;45.52;95349.31;5036381;28;20447;-69
2021/09/15 00:36:08;;;;;;;8.43;5.77;;;;;;;18.60;45.17;95356.38;5046956;28;20211;-68
2021/09/15 00:38:35;;;;;;;11.17;6.00;;;;;;;18.61;45.42;95363.25;5038151;28;20197;-68
2021/09/15 00:41:04;;;;;;;8.87;6.07;;;;;;;18.72;45.56;95359.31;5053524;28;20491;-68
2021/09/15 00:43:31;;;;;;;10.83;6.23;;;;;;;18.68;45.72;95363.69;5062538;28;20494;-67
2021/09/15 00:45:58;;;;;;;13.60;6.33;;;;;;;18.72;45.31;95364.63;5060949;28;20195;-67
2021/09/15 00:48:25;;;;;;;11.33;5.13;;;;;;;18.62;44.93;95369.34;5049407;28;20481;-66
2021/09/15 00:50:52;;;;;;;5.87;5.27;;;;;;;18.58;44.18;95363.84;5045561;28;20193;-68
2021/09/15 00:53:19;;;;;;;10.00;5.83;;;;;;;18.55;44.55;95364.44;5038965;28;20446;-68
2021/09/15 00:55:47;;;;;;;8.27;6.30;;;;;;;18.49;45.35;95370.91;5053495;28;20443;-69
2021/09/15 00:58:15;;;;;;;8.67;6.03;;;;;;;18.53;45.49;95371.91;5054312;28;20443;-68
2021/09/15 01:00:46;;;;;;;6.80;5.63;;;;;;;18.54;45.57;95370.81;5051487;28;20212;-67
2021/09/15 01:03:13;;;;;;;7.87;6.03;;;;;;;18.56;46.03;95363.34;5041336;28;20682;-68
2021/09/15 01:05:40;;;;;;;11.80;5.80;;;;;;;18.59;45.47;95365.44;5040779;28;20213;-67
2021/09/15 01:08:07;;;;;;;8.87;6.03;;;;;;;18.60;45.89;95369.66;5062546;28;20451;-67
2021/09/15 01:10:36;;;;;;;7.07;5.80;;;;;;;18.51;45.88;95368.75;5048053;28;20314;-67
2021/09/15 01:13:10;;;;;;;9.53;6.27;;;;;;;18.52;45.71;95354.41;5049570;28;20234;-67
2021/09/15 01:15:39;;;;;;;10.97;6.37;;;;;;;18.30;46.03;95350.81;5048659;28;20821;-68
2021/09/15 01:18:46;;;;;;;8.67;6.17;;;;;;;18.31;47.20;95366.44;5051576;28;20200;-67
2021/09/15 01:21:47;;;;;;;9.20;6.33;;;;;;;18.26;46.81;95366.53;5038775;28;20459;-69
2021/09/15 01:24:33;;;;;;;9.07;6.37;;;;;;;18.15;46.54;95378.38;5034381;28;20236;-69
2021/09/15 01:27:18;;;;;;;10.53;6.87;;;;;;;18.20;46.97;95368.47;5049415;28;20450;-68
2021/09/15 01:30:05;;;;;;;16.93;12.57;;;;;;;18.15;47.15;95370.44;5054244;28;20442;-67
2021/09/15 01:32:33;;;;;;;13.70;9.97;;;;;;;18.20;47.10;95362.38;5040274;28;20787;-66
2021/09/15 01:35:01;;;;;;;14.77;8.73;;;;;;;18.20;47.45;95368.47;5055403;28;20808;-69
2021/09/15 01:37:32;;;;;;;9.90;7.40;;;;;;;18.19;47.22;95379.38;5034480;28;20518;-67
2021/09/15 01:40:00;;;;;;;12.33;9.40;;;;;;;18.15;47.33;95386.34;5049861;28;20467;-67
2021/09/15 01:42:31;;;;;;;12.80;8.43;;;;;;;18.16;47.66;95382.59;5065529;28;20451;-68
2021/09/15 01:45:05;;;;;;;12.13;9.17;;;;;;;18.00;47.91;95391.88;5060644;28;20785;-69
2021/09/15 01:47:33;;;;;;;17.40;10.57;;;;;;;17.99;47.62;95382.38;5053106;28;20505;-67
2021/09/15 01:50:01;;;;;;;11.40;9.20;;;;;;;17.93;47.97;95383.50;5032209;28;20436;-67
2021/09/15 01:52:28;;;;;;;13.87;9.00;;;;;;;17.91;48.14;95388.31;5032454;28;20505;-67
2021/09/15 01:54:58;;;;;;;13.83;8.63;;;;;;;17.89;48.27;95385.97;5050409;28;20258;-66
2021/09/15 01:57:25;;;;;;;12.67;8.43;;;;;;;17.91;48.28;95391.75;5034305;28;20514;-69
2021/09/15 02:00:16;;;;;;;12.67;8.37;;;;;;;17.85;48.60;95381.50;5049519;28;20458;-68
2021/09/15 02:03:09;;;;;;;11.23;8.00;;;;;;;17.84;47.93;95386.03;5053965;28;20464;-67
2021/09/15 02:05:49;;;;;;;12.87;8.63;;;;;;;17.72;48.52;95388.31;5060380;28;20481;-70
2021/09/15 02:08:34;;;;;;;12.33;8.50;;;;;;;17.38;49.08;95381.63;5042118;28;20439;-68
2021/09/15 02:11:13;;;;;;;13.13;7.50;;;;;;;17.11;50.58;95382.25;5053559;28;20440;-68
2021/09/15 02:13:40;;;;;;;18.00;8.30;;;;;;;16.59;51.54;95391.03;5057114;28;20846;-68
2021/09/15 02:16:07;;;;;;;17.23;8.57;;;;;;;16.81;52.17;95388.69;5042636;28;20525;-67
2021/09/15 02:18:34;;;;;;;10.10;7.90;;;;;;;16.99;50.69;95384.50;5045279;28;20504;-67
2021/09/15 02:21:16;;;;;;;15.33;8.43;;;;;;;17.00;51.02;95381.59;5038503;28;21030;-67
2021/09/15 02:24:09;;;;;;;11.80;7.90;;;;;;;17.17;50.89;95391.69;5045134;28;20494;-69
2021/09/15 02:26:54;;;;;;;12.93;7.30;;;;;;;17.24;50.71;95384.22;5044663;28;20453;-70
2021/09/15 02:29:21;;;;;;;13.50;8.40;;;;;;;17.28;51.23;95392.38;5049240;28;20457;-68
2021/09/15 02:32:12;;;;;;;11.53;7.80;;;;;;;17.31;50.20;95395.25;5048793;28;20438;-67
2021/09/15 02:35:09;;;;;;;12.37;7.30;;;;;;;17.31;50.11;95387.28;5043246;28;20459;-68
2021/09/15 02:37:51;;;;;;;12.57;7.43;;;;;;;17.29;50.77;95393.94;5049528;28;20450;-69
2021/09/15 02:40:34;;;;;;;11.43;7.30;;;;;;;17.28;50.62;95389.72;5047823;28;20532;-69
2021/09/15 02:43:09;;;;;;;9.77;6.93;;;;;;;17.18;51.30;95391.44;5032520;28;20471;-68
2021/09/15 02:46:02;;;;;;;15.47;8.03;;;;;;;17.01;51.46;95391.09;5028718;28;20600;-66
2021/09/15 02:48:49;;;;;;;12.73;7.90;;;;;;;17.11;51.11;95393.66;5042454;28;20504;-69
2021/09/15 02:51:21;;;;;;;14.03;7.07;;;;;;;17.14;50.27;95390.41;5042898;28;20543;-67
2021/09/15 02:54:03;;;;;;;13.93;8.00;;;;;;;17.27;50.85;95396.88;5043316;28;20455;-67
2021/09/15 02:56:43;;;;;;;15.33;8.80;;;;;;;17.29;50.63;95394.75;5039523;28;20986;-68
2021/09/15 02:59:25;;;;;;;17.93;9.17;;;;;;;17.22;50.38;95389.78;5050319;28;20536;-66
2021/09/15 03:02:16;;;;;;;15.67;7.83;;;;;;;17.25;50.25;95391.06;5048677;28;20438;-66
2021/09/15 03:05:07;;;;;;;14.53;8.43;;;;;;;17.16;51.69;95395.44;5049360;28;20478;-68
2021/09/15 03:07:54;;;;;;;10.77;8.27;;;;;;;17.01;51.08;95391.09;5050757;28;20536;-66
2021/09/15 03:10:22;;;;;;;12.37;7.73;;;;;;;17.05;50.87;95401.91;5051642;28;20515;-69
2021/09/15 03:12:49;;;;;;;10.90;8.37;;;;;;;17.09;51.45;95406.38;5048630;28;20976;-66
2021/09/15 03:15:17;;;;;;;13.40;7.43;;;;;;;16.99;51.14;95395.09;5056547;28;20525;-68
2021/09/15 03:17:44;;;;;;;17.50;8.57;;;;;;;16.95;51.40;95402.81;5039492;28;20551;-69
2021/09/15 03:20:11;;;;;;;13.07;7.83;;;;;;;17.07;50.92;95403.22;5043157;28;20446;-69
2021/09/15 03:22:38;;;;;;;14.93;8.10;;;;;;;16.97;51.09;95407.84;5048367;28;20810;-70
2021/09/15 03:25:07;;;;;;;14.30;7.93;;;;;;;16.92;51.44;95399.94;5036054;28;20876;-70
2021/09/15 03:27:35;;;;;;;19.70;8.33;;;;;;;16.49;51.38;95409.69;5043700;28;20456;-69
2021/09/15 03:30:04;;;;;;;14.57;8.27;;;;;;;16.47;51.46;95408.34;5042018;28;20465;-70
2021/09/15 03:32:33;;;;;;;11.23;8.00;;;;;;;16.43;52.26;95407.31;5044490;28;20450;-69
2021/09/15 03:35:03;;;;;;;10.00;7.40;;;;;;;16.52;51.97;95414.41;5039741;28;20896;-69
2021/09/15 03:37:31;;;;;;;14.60;8.17;;;;;;;16.62;52.46;95416.97;5048209;28;20442;-69
2021/09/15 03:39:58;;;;;;;11.90;9.17;;;;;;;16.67;52.39;95427.50;5049444;28;21045;-69
2021/09/15 03:42:26;;;;;;;17.57;8.10;;;;;;;16.62;51.83;95421.47;5052281;28;20905;-69
2021/09/15 03:44:54;;;;;;;11.00;8.03;;;;;;;16.70;52.17;95426.91;5045355;28;20550;-68
2021/09/15 03:47:21;;;;;;;15.67;8.80;;;;;;;16.70;51.86;95418.97;5071168;28;20453;-69
2021/09/15 03:49:48;;;;;;;10.60;7.87;;;;;;;16.61;52.72;95420.66;5034992;28;20433;-66
2021/09/15 03:52:15;;;;;;;14.03;8.13;;;;;;;16.57;52.22;95413.56;5068379;28;20521;-67
2021/09/15 03:54:43;;;;;;;15.43;8.80;;;;;;;16.66;52.09;95427.78;5052119;28;20446;-66
2021/09/15 03:57:10;;;;;;;18.13;8.77;;;;;;;16.53;52.47;95426.56;5053117;28;20451;-70
2021/09/15 03:59:38;;;;;;;16.87;9.10;;;;;;;16.57;51.91;95422.28;5050761;28;20469;-68
2021/09/15 04:02:06;;;;;;;17.53;9.47;;;;;;;16.59;52.41;95428.09;5047044;28;21081;-67
2021/09/15 04:04:35;;;;;;;14.03;9.13;;;;;;;16.49;52.74;95412.31;5048125;28;20566;-66
2021/09/15 04:07:02;;;;;;;25.47;10.33;;;;;;;16.42;52.65;95432.19;5039610;28;20844;-70
2021/09/15 04:09:29;;;;;;;18.07;10.33;;;;;;;16.35;52.97;95443.09;5030869;28;20460;-67
2021/09/15 04:11:58;;;;;;;47.53;32.67;;;;;;;16.50;52.61;95445.63;5041274;28;20554;-67
2021/09/15 04:14:25;;;;;;;33.83;20.33;;;;;;;16.47;52.66;95448.84;5033737;28;20966;-68
2021/09/15 04:16:55;;;;;;;20.77;12.80;;;;;;;16.45;52.28;95448.31;5048202;28;20470;-70
2021/09/15 04:19:22;;;;;;;19.77;13.80;;;;;;;16.39;52.97;95443.31;5048188;28;20478;-69
2021/09/15 04:21:49;;;;;;;18.03;11.37;;;;;;;16.41;53.03;95434.03;5024494;28;20452;-69
2021/09/15 04:32:28;;;;;;;28.33;12.67;;;;;;;16.38;53.93;95463.72;5038110;28;20513;-72
2021/09/15 04:34:55;;;;;;;26.30;14.27;;;;;;;16.40;53.96;95464.22;5052027;28;20508;-69
2021/09/15 04:37:22;;;;;;;19.37;13.00;;;;;;;16.36;53.67;95465.03;5049201;28;20989;-69
2021/09/15 04:39:49;;;;;;;17.97;11.73;;;;;;;16.25;53.64;95469.63;5052563;28;20920;-70
2021/09/15 04:42:17;;;;;;;22.50;12.00;;;;;;;16.34;53.36;95470.63;5048852;28;20439;-69
2021/09/15 04:44:44;;;;;;;23.63;11.10;;;;;;;16.34;54.00;95472.47;5048312;28;20483;-67
2021/09/15 04:47:11;;;;;;;629.47;61.37;;;;;;;16.47;53.40;95477.13;5051737;28;20445;-68
2021/09/15 04:49:38;;;;;;;35.93;15.40;;;;;;;16.49;53.95;95473.16;5052821;28;20530;-70
2021/09/15 04:52:05;;;;;;;29.27;13.17;;;;;;;16.47;53.27;95477.94;5040201;28;21012;-71
2021/09/15 04:54:32;;;;;;;21.53;12.53;;;;;;;16.37;53.93;95466.63;5051322;28;20434;-70
2021/09/15 04:56:59;;;;;;;20.63;11.70;;;;;;;16.36;54.13;95465.84;5050538;28;20824;-69
2021/09/15 04:59:26;;;;;;;130.37;111.93;;;;;;;16.46;54.07;95476.31;5047337;28;20454;-70
2021/09/15 05:01:55;;;;;;;45.03;37.30;;;;;;;16.50;53.63;95476.59;5052789;28;20439;-71
2021/09/15 05:04:23;;;;;;;77.90;57.60;;;;;;;16.46;54.79;95476.31;5051553;28;20884;-69
2021/09/15 05:07:05;;;;;;;23.97;17.27;;;;;;;16.47;54.19;95477.94;5054198;28;20461;-65
2021/09/15 05:09:33;;;;;;;34.90;20.03;;;;;;;16.46;53.69;95471.03;5050951;28;20439;-66
2021/09/15 05:12:02;;;;;;;20.67;12.60;;;;;;;16.54;53.50;95473.13;5048339;28;20470;-67
2021/09/15 05:14:29;;;;;;;21.50;13.63;;;;;;;16.59;53.07;95482.84;5041007;28;20828;-67
2021/09/15 05:16:56;;;;;;;21.97;13.13;;;;;;;16.58;53.66;95482.09;5050786;28;20932;-64
2021/09/15 05:19:23;;;;;;;19.23;12.27;;;;;;;16.65;53.42;95479.09;5051391;28;20444;-65
2021/09/15 05:21:50;;;;;;;46.43;34.77;;;;;;;16.78;52.96;95473.97;5051298;28;20443;-73
2021/09/15 05:24:17;;;;;;;116.53;95.93;;;;;;;16.96;52.68;95475.88;5032564;28;20949;-73
2021/09/15 05:26:45;;;;;;;41.50;30.40;;;;;;;16.90;52.09;95466.41;5043089;28;20524;-65
2021/09/15 05:29:12;;;;;;;21.83;12.77;;;;;;;16.87;52.01;95480.22;5050586;28;20537;-69
2021/09/15 05:31:38;;;;;;;19.87;11.73;;;;;;;16.98;52.44;95484.34;5051125;28;20477;-66
2021/09/15 05:34:09;;;;;;;47.07;30.93;;;;;;;16.92;52.15;95474.88;5036764;28;20642;-66
2021/09/15 05:36:37;;;;;;;28.80;18.30;;;;;;;17.07;52.00;95487.94;5050872;28;20451;-66
2021/09/15 05:39:07;;;;;;;25.20;12.90;;;;;;;17.13;52.11;95489.47;5050576;28;20443;-67
2021/09/15 05:41:34;;;;;;;20.13;12.40;;;;;;;17.29;51.66;95484.00;5042025;28;20456;-69
2021/09/15 05:44:02;;;;;;;19.50;12.10;;;;;;;17.24;51.71;95472.38;5044374;28;20474;-67
2021/09/15 05:46:29;;;;;;;19.03;12.33;;;;;;;17.34;50.45;95481.28;5049149;28;20537;-69
2021/09/15 05:48:57;;;;;;;18.40;10.90;;;;;;;17.36;50.95;95479.94;5036621;28;20532;-68
2021/09/15 05:51:25;;;;;;;21.87;12.23;;;;;;;16.89;51.30;95479.94;5036851;28;20446;-70
2021/09/15 05:53:54;;;;;;;21.13;12.20;;;;;;;16.98;51.00;95484.34;5051233;28;20498;-68
2021/09/15 05:56:21;;;;;;;23.07;10.97;;;;;;;16.82;51.05;95479.47;5045982;28;20432;-69
2021/09/15 05:58:48;;;;;;;20.17;11.03;;;;;;;16.98;50.89;95480.91;5046341;28;20506;-69
2021/09/15 06:01:15;;;;;;;14.53;11.20;;;;;;;16.80;51.47;95486.91;5052985;28;20454;-69
2021/09/15 06:03:42;;;;;;;17.97;11.97;;;;;;;16.91;51.31;95483.88;5041778;28;20436;-68
2021/09/15 06:06:34;;;;;;;17.40;11.83;;;;;;;17.21;49.96;95480.09;5033534;28;20847;-69
2021/09/15 06:09:08;;;;;;;20.67;12.10;;;;;;;17.53;50.15;95485.59;5036544;28;20436;-68
2021/09/15 06:11:35;;;;;;;20.80;12.37;;;;;;;17.32;50.58;95475.50;5032641;28;20454;-69
2021/09/15 06:14:02;;;;;;;20.70;11.73;;;;;;;17.41;49.48;95473.81;5035753;28;20443;-68
2021/09/15 06:16:30;;;;;;;18.37;12.03;;;;;;;17.46;50.94;95473.75;5049964;28;20439;-70
2021/09/15 06:19:01;;;;;;;23.97;13.10;;;;;;;17.82;49.94;95472.22;5049658;28;20439;-68
2021/09/15 06:21:48;;;;;;;17.33;13.50;;;;;;;17.50;51.45;95472.13;5060053;28;20802;-71
2021/09/15 06:24:35;;;;;;;23.50;13.57;;;;;;;18.04;51.46;95475.09;5039455;28;20458;-68
2021/09/15 06:27:01;;;;;;;23.47;14.87;;;;;;;18.04;51.29;95480.41;5048723;28;20570;-69
2021/09/15 06:29:28;;;;;;;20.30;14.73;;;;;;;17.86;51.41;95489.16;5037096;28;20446;-66
2021/09/15 06:31:55;;;;;;;22.73;16.13;;;;;;;17.83;52.00;95473.78;5051169;28;20517;-67
2021/09/15 06:34:22;;;;;;;32.73;19.77;;;;;;;17.92;51.11;95482.69;5036900;28;20490;-66
2021/09/15 06:36:49;;;;;;;31.47;14.53;;;;;;;18.13;50.96;95476.81;5050873;28;20470;-68
2021/09/15 06:39:16;;;;;;;40.43;15.87;;;;;;;18.30;50.81;95476.31;5051500;28;20277;-72
2021/09/15 06:41:43;;;;;;;33.80;15.47;;;;;;;18.29;51.75;95487.19;5050699;28;20499;-65
2021/09/15 06:44:10;;;;;;;22.83;13.90;;;;;;;18.46;50.36;95485.63;5047612;28;20482;-65
2021/09/15 06:46:37;;;;;;;24.63;13.60;;;;;;;18.73;49.61;95480.38;5038166;28;20220;-66
2021/09/15 06:49:04;;;;;;;25.63;12.73;;;;;;;18.89;48.68;95484.34;5048051;28;20968;-66
2021/09/15 06:51:31;;;;;;;29.87;12.67;;;;;;;18.65;50.17;95486.34;5039087;28;20443;-68
2021/09/15 06:53:58;;;;;;;20.70;11.97;;;;;;;18.91;48.93;95484.03;5050218;28;20223;-68
2021/09/15 06:56:26;;;;;;;24.33;13.10;;;;;;;19.01;48.49;95484.66;5043394;28;20660;-67
2021/09/15 06:58:55;;;;;;;23.27;12.83;;;;;;;19.11;49.08;95484.47;5044431;28;20192;-67
2021/09/15 07:01:24;;;;;;;23.10;13.87;;;;;;;19.23;48.71;95480.53;5050520;28;20585;-66
2021/09/15 07:03:51;;;;;;;28.90;15.57;;;;;;;18.92;49.97;95486.41;5050549;28;20205;-68
2021/09/15 07:06:18;;;;;;;25.87;14.50;;;;;;;19.17;48.82;95488.63;5050174;28;20205;-65
2021/09/15 07:08:45;;;;;;;26.57;16.23;;;;;;;19.30;47.91;95495.03;5050902;28;20208;-65
2021/09/15 07:11:12;;;;;;;32.50;15.63;;;;;;;19.46;47.09;95483.03;5036428;28;20228;-67
2021/09/15 07:13:39;;;;;;;31.20;15.83;;;;;;;19.56;47.06;95484.72;5050731;28;20213;-67
2021/09/15 07:16:06;;;;;;;35.07;15.50;;;;;;;19.53;45.91;95490.59;5050243;28;20196;-67
2021/09/15 07:18:33;;;;;;;31.60;15.83;;;;;;;19.55;45.55;95488.44;5050267;28;20682;-67
2021/09/15 07:21:00;;;;;;;27.70;14.47;;;;;;;19.81;45.02;95486.84;5049772;28;20255;-67
2021/09/15 07:23:31;;;;;;;20.37;12.97;;;;;;;19.82;44.79;95483.88;5036729;28;20193;-66
2021/09/15 07:25:58;;;;;;;24.80;13.60;;;;;;;19.94;44.82;95491.34;5029782;28;20308;-68
2021/09/15 07:28:25;;;;;;;26.07;13.50;;;;;;;19.95;44.40;95484.91;5042308;28;20196;-67
2021/09/15 07:30:52;;;;;;;19.90;12.60;;;;;;;19.98;46.66;95481.69;5045876;28;20201;-65
2021/09/15 07:33:19;;;;;;;25.67;13.30;;;;;;;20.09;46.23;95483.81;5040350;28;20193;-64
2021/09/15 07:35:46;;;;;;;25.77;11.83;;;;;;;20.32;44.04;95474.00;5047042;28;20554;-69
2021/09/15 07:38:13;;;;;;;16.63;10.60;;;;;;;20.47;42.87;95476.31;5030318;28;20207;-66
2021/09/15 07:40:40;;;;;;;23.40;10.63;;;;;;;20.56;43.11;95477.16;5030019;28;20223;-66
2021/09/15 07:43:06;;;;;;;21.47;10.90;;;;;;;20.79;43.02;95480.56;5036683;28;20298;-68
2021/09/15 07:45:33;;;;;;;17.53;10.13;;;;;;;20.76;42.50;95484.66;5038787;28;20695;-68
2021/09/15 07:48:00;;;;;;;18.60;9.13;;;;;;;20.79;42.58;95476.03;5045636;28;20642;-66
2021/09/15 07:50:27;;;;;;;15.03;9.67;;;;;;;20.87;43.72;95472.66;5037758;28;20219;-68
2021/09/15 07:52:54;;;;;;;24.57;10.20;;;;;;;20.82;44.87;95475.41;5036085;28;20188;-68
2021/09/15 07:55:21;;;;;;;20.70;10.47;;;;;;;20.88;44.31;95476.88;5050172;28;20583;-68
2021/09/15 07:57:52;;;;;;;27.93;18.83;;;;;;;21.21;42.83;95473.91;5045330;28;20216;-65
2021/09/15 08:00:20;;;;;;;20.50;9.93;;;;;;;21.20;42.13;95470.47;5041403;28;20239;-67
2021/09/15 08:02:47;;;;;;;70.60;43.80;;;;;;;21.32;41.83;95472.53;5052347;28;20204;-68
2021/09/15 08:05:18;;;;;;;20.43;10.37;;;;;;;21.47;41.24;95469.44;5060948;28;20188;-67
2021/09/15 08:07:44;;;;;;;19.93;10.43;;;;;;;21.72;41.15;95468.72;5056177;28;20189;-66
2021/09/15 08:10:12;;;;;;;20.33;10.23;;;;;;;21.95;42.54;95467.56;5049629;28;20207;-69
2021/09/15 08:12:38;;;;;;;17.97;10.30;;;;;;;22.02;42.82;95465.19;5055230;28;20222;-65
2021/09/15 08:15:06;;;;;;;18.10;10.80;;;;;;;22.19;41.87;95470.53;5056234;28;20196;-67
2021/09/15 08:17:33;;;;;;;23.07;11.47;;;;;;;22.19;41.90;95465.19;5055025;28;20208;-68
2021/09/15 08:20:00;;;;;;;22.67;9.90;;;;;;;22.38;41.36;95460.31;5055761;28;20196;-69
2021/09/15 08:22:27;;;;;;;23.93;11.50;;;;;;;22.50;41.94;95463.13;5037304;28;20200;-65
2021/09/15 08:24:54;;;;;;;25.73;10.63;;;;;;;22.77;40.52;95460.13;5034111;28;20209;-65
2021/09/15 08:27:21;;;;;;;23.00;11.63;;;;;;;22.79;39.87;95463.25;5035719;28;20251;-68
2021/09/15 08:29:48;;;;;;;22.40;11.20;;;;;;;22.82;40.65;95451.97;5053008;28;20201;-66
2021/09/15 08:32:15;;;;;;;17.57;10.40;;;;;;;22.91;41.17;95455.38;5049381;28;20197;-69
2021/09/15 08:34:42;;;;;;;31.33;12.27;;;;;;;23.34;40.73;95457.16;5041277;28;20189;-66
2021/09/15 08:37:09;;;;;;;22.20;11.47;;;;;;;23.44;39.33;95451.44;5039259;28;20251;-68
2021/09/15 08:39:36;;;;;;;18.53;10.97;;;;;;;23.31;40.29;95453.22;5040154;28;20196;-67
2021/09/15 08:42:03;;;;;;;24.03;11.63;;;;;;;23.46;40.24;95449.22;5040495;28;20202;-68
2021/09/15 08:44:31;;;;;;;25.13;12.10;;;;;;;23.68;37.52;95454.28;5051411;28;20236;-71
2021/09/15 08:46:58;;;;;;;29.20;12.13;;;;;;;23.64;39.72;95450.69;5052843;28;20208;-68
2021/09/15 08:49:27;;;;;;;28.97;11.70;;;;;;;23.78;39.41;95435.94;5036794;28;20197;-69
2021/09/15 08:51:54;;;;;;;24.47;11.47;;;;;;;24.10;36.90;95447.88;5044527;28;20710;-69
2021/09/15 08:54:21;;;;;;;24.77;11.67;;;;;;;23.94;38.54;95438.84;5038977;28;20196;-69
2021/09/15 08:56:48;;;;;;;20.63;11.77;;;;;;;24.31;38.07;95437.94;5052700;28;20228;-68
2021/09/15 08:59:15;;;;;;;27.80;12.33;;;;;;;24.31;37.83;95427.22;5053030;28;20197;-68
2021/09/15 09:01:45;;;;;;;24.87;11.83;;;;;;;24.29;38.65;95428.69;5052189;28;20675;-68
2021/09/15 09:04:15;;;;;;;16.83;8.83;;;;;;;24.42;34.45;95425.72;5052966;28;20239;-68
2021/09/15 09:06:47;;;;;;;15.93;8.20;;;;;;;24.57;34.54;95425.09;5042840;28;20216;-68
2021/09/15 09:09:15;;;;;;;11.17;7.90;;;;;;;24.60;33.95;95427.09;5047444;28;20246;-64
2021/09/15 09:11:45;;;;;;;11.40;7.83;;;;;;;24.67;33.52;95431.94;5052065;28;20196;-70
2021/09/15 09:14:12;;;;;;;23.97;9.57;;;;;;;24.69;33.67;95421.69;5039740;28;20197;-68
2021/09/15 09:16:45;;;;;;;16.80;9.67;;;;;;;24.98;34.80;95421.53;5038152;28;20569;-65
2021/09/15 09:19:26;;;;;;;19.20;9.20;;;;;;;25.25;33.96;95422.78;5037752;28;20196;-66
2021/09/15 09:21:55;;;;;;;16.70;9.93;;;;;;;25.06;33.58;95416.06;5050339;28;20204;-68
2021/09/15 09:24:24;;;;;;;22.43;10.47;;;;;;;25.07;33.55;95412.25;5051148;28;20209;-68
2021/09/15 09:26:53;;;;;;;17.80;9.37;;;;;;;25.33;34.24;95416.53;5051030;28;20610;-65
2021/09/15 09:29:33;;;;;;;15.10;9.23;;;;;;;25.52;35.30;95404.13;5045255;28;20209;-66
2021/09/15 09:32:15;;;;;;;18.67;10.10;;;;;;;26.06;34.33;95403.84;5031987;28;20201;-64
2021/09/15 09:34:50;;;;;;;18.70;9.93;;;;;;;26.29;34.40;95396.81;5039017;28;20558;-69
2021/09/15 09:37:19;;;;;;;14.80;9.03;;;;;;;26.35;32.34;95408.88;5036218;28;20546;-65
2021/09/15 09:39:57;;;;;;;26.13;10.57;;;;;;;26.32;32.90;95396.91;5031528;28;20205;-66
2021/09/15 09:42:24;;;;;;;18.27;9.17;;;;;;;26.45;32.99;95398.41;5032704;28;20197;-70
2021/09/15 09:45:05;;;;;;;20.70;9.47;;;;;;;26.56;32.45;95380.66;5050618;28;20204;-68
2021/09/15 09:47:34;;;;;;;15.63;8.67;;;;;;;26.65;31.12;95383.19;5049994;28;20721;-67
2021/09/15 09:50:01;;;;;;;15.93;7.37;;;;;;;26.22;29.86;95397.41;5032579;28;20205;-66
2021/09/15 09:52:30;;;;;;;15.73;7.50;;;;;;;26.20;28.92;95394.28;5032649;28;21078;-67
2021/09/15 09:55:19;;;;;;;15.70;7.40;;;;;;;26.22;29.23;95377.81;5040092;28;20197;-65
2021/09/15 09:57:51;;;;;;;16.87;7.73;;;;;;;26.07;29.37;95384.69;5035449;28;20197;-68
2021/09/15 10:00:19;;;;;;;12.07;7.63;;;;;;;26.76;30.35;95374.31;5040774;28;20691;-69
2021/09/15 10:02:46;;;;;;;12.33;8.27;;;;;;;26.90;29.47;95373.88;5045399;28;20263;-66
2021/09/15 10:05:18;;;;;;;14.33;9.03;;;;;;;27.15;29.99;95366.41;5041594;28;20595;-66
2021/09/15 10:07:46;;;;;;;19.90;8.30;;;;;;;27.59;29.48;95351.69;5051073;28;20658;-67
2021/09/15 10:10:16;;;;;;;10.60;7.00;;;;;;;27.63;27.15;95357.91;5043243;28;20193;-67
2021/09/15 10:12:45;;;;;;;7.77;6.90;;;;;;;27.17;27.84;95361.47;5046672;28;20235;-65
2021/09/15 10:15:13;;;;;;;12.70;6.70;;;;;;;27.30;27.96;95352.94;5036450;28;20197;-65
2021/09/15 10:17:47;;;;;;;12.63;6.90;;;;;;;27.50;26.73;95351.13;5038308;28;20653;-68
2021/09/15 10:20:15;;;;;;;11.93;7.10;;;;;;;27.67;28.75;95348.00;5050979;28;20209;-67
2021/09/15 10:22:46;;;;;;;10.07;5.87;;;;;;;27.59;27.10;95338.25;5037664;28;20197;-66
2021/09/15 10:25:13;;;;;;;12.33;6.63;;;;;;;27.80;27.67;95341.38;5037815;28;20193;-70
2021/09/15 10:27:59;;;;;;;9.83;5.87;;;;;;;28.17;28.50;95342.56;5049955;28;20224;-65
2021/09/15 10:30:41;;;;;;;8.97;6.37;;;;;;;28.24;27.81;95339.97;5036683;28;20624;-68
2021/09/15 10:33:28;;;;;;;12.07;6.63;;;;;;;28.63;28.03;95341.50;5039529;28;20659;-67
2021/09/15 10:35:55;;;;;;;7.93;6.00;;;;;;;28.57;25.45;95350.25;5049908;28;20216;-65
2021/09/15 10:38:51;;;;;;;11.30;6.10;;;;;;;28.34;28.17;95341.31;5041944;28;20197;-67
2021/09/15 10:41:33;;;;;;;8.63;5.17;;;;;;;28.61;26.64;95338.38;5036950;28;20223;-65
2021/09/15 10:44:08;;;;;;;9.00;5.70;;;;;;;28.58;26.20;95333.69;5050375;28;20232;-65
2021/09/15 10:46:36;;;;;;;11.83;5.57;;;;;;;28.72;24.61;95327.78;5038038;28;20216;-66
2021/09/15 10:49:35;;;;;;;9.13;6.10;;;;;;;28.32;26.47;95325.50;5050752;28;20204;-68
2021/09/15 10:52:08;;;;;;;10.20;5.83;;;;;;;28.59;25.80;95324.50;5050294;28;20960;-66
2021/09/15 10:54:42;;;;;;;6.77;5.43;;;;;;;28.67;25.82;95320.75;5044826;28;20281;-65
2021/09/15 10:57:20;;;;;;;10.10;6.67;;;;;;;28.82;25.37;95325.25;5043230;28;20208;-67
2021/09/15 10:59:59;;;;;;;10.73;5.90;;;;;;;28.53;23.99;95315.13;5037637;28;20651;-67
2021/09/15 11:02:29;;;;;;;8.57;5.57;;;;;;;28.78;24.47;95316.31;5035553;28;20250;-66
2021/09/15 11:05:00;;;;;;;9.87;6.27;;;;;;;29.01;25.43;95313.63;5050421;28;20659;-68
2021/09/15 11:07:48;;;;;;;6.50;5.17;;;;;;;29.28;24.69;95306.34;5050027;28;20663;-64
2021/09/15 11:10:34;;;;;;;7.13;5.60;;;;;;;29.53;24.83;95291.25;5039579;28;20678;-68
2021/09/15 11:13:12;;;;;;;11.10;6.47;;;;;;;29.30;25.01;95293.25;5038899;28;20204;-67
2021/09/15 11:15:48;;;;;;;12.47;6.43;;;;;;;29.26;24.69;95284.31;5049017;28;20587;-67
2021/09/15 11:18:26;;;;;;;8.93;6.23;;;;;;;28.60;24.21;95282.91;5049794;28;20206;-65
2021/09/15 11:21:11;;;;;;;8.17;5.90;;;;;;;29.02;26.37;95271.22;5050285;28;20204;-65
2021/09/15 11:23:38;;;;;;;9.93;5.83;;;;;;;29.41;24.94;95267.97;5050150;28;20204;-68
2021/09/15 11:26:05;;;;;;;10.13;6.60;;;;;;;29.61;25.31;95266.69;5049746;28;20535;-65
2021/09/15 11:28:33;;;;;;;12.63;5.50;;;;;;;29.51;24.61;95271.94;5050392;28;20662;-67
2021/09/15 11:31:03;;;;;;;8.93;6.40;;;;;;;29.12;25.39;95257.13;5049895;28;20193;-66
2021/09/15 11:33:34;;;;;;;9.23;5.67;;;;;;;29.51;24.64;95266.53;5050102;28;20537;-68
2021/09/15 11:36:06;;;;;;;8.27;5.90;;;;;;;29.73;23.71;95269.19;5049299;28;20184;-67
2021/09/15 11:38:36;;;;;;;6.40;5.80;;;;;;;30.05;24.68;95264.16;5050095;28;20208;-68
2021/09/15 11:41:07;;;;;;;10.27;5.93;;;;;;;30.17;24.90;95260.38;5049483;28;20199;-64
2021/09/15 11:43:35;;;;;;;8.70;6.20;;;;;;;30.24;23.69;95261.25;5049964;28;20714;-68
2021/09/15 11:46:02;;;;;;;6.97;5.47;;;;;;;30.05;22.26;95257.94;5049219;28;20291;-65
2021/09/15 11:48:30;;;;;;;8.97;5.47;;;;;;;29.67;23.55;95250.94;5050060;28;20693;-68